sensor_id;sensor_type;location;lat;lon;timestamp;P1;durP1;ratioP1;P2;durP2;ratioP2
45863;SDS011;31579;52.354;16.974;2023-06-10T00:01:06;9.40;;;6.60;;
45863;SDS011;31579;52.354;16.974;2023-06-10T00:06:09;9.40;;;6.60;;
45863;SDS011;31579;52.354;16.974;2023-06-10T00:11:06;10.00;;;6.40;;
45863;SDS011;31579;52.354;16.974;2023-06-10T00:16:06;10.00;;;6.40;;
45863;SDS011;31579;52.354;16.974;2023-06-10T00:21:06;10.30;;;6.20;;
45863;SDS011;31579;52.354;16.974;2023-06-10T00:26:06;10.30;;;6.20;;
45863;SDS011;31579;52.354;16.974;2023-06-10T00:31:06;13.10;;;6.80;;
45863;SDS011;31579;52.354;16.974;2023-06-10T00:36:06;13.10;;;6.80;;
45863;SDS011;31579;52.354;16.974;2023-06-10T00:41:06;11.00;;;6.70;;
45863;SDS011;31579;52.354;16.974;2023-06-10T00:46:06;11.00;;;6.70;;
45863;SDS011;31579;52.354;16.974;2023-06-10T00:51:06;9.30;;;6.40;;
45863;SDS011;31579;52.354;16.974;2023-06-10T00:56:06;9.30;;;6.40;;
45863;SDS011;31579;52.354;16.974;2023-06-10T01:01:05;10.60;;;6.60;;
45863;SDS011;31579;52.354;16.974;2023-06-10T01:06:11;10.60;;;6.60;;
45863;SDS011;31579;52.354;16.974;2023-06-10T01:11:19;10.10;;;7.20;;
45863;SDS011;31579;52.354;16.974;2023-06-10T01:16:14;10.10;;;7.20;;
45863;SDS011;31579;52.354;16.974;2023-06-10T01:21:19;10.20;;;7.30;;
45863;SDS011;31579;52.354;16.974;2023-06-10T01:26:14;10.20;;;7.30;;
45863;SDS011;31579;52.354;16.974;2023-06-10T01:31:18;11.90;;;8.20;;
45863;SDS011;31579;52.354;16.974;2023-06-10T01:36:15;11.90;;;8.20;;
45863;SDS011;31579;52.354;16.974;2023-06-10T01:38:04;11.90;;;8.20;;
45863;SDS011;31579;52.354;16.974;2023-06-10T01:43:02;11.90;;;8.20;;
45863;SDS011;31579;52.354;16.974;2023-06-10T01:48:02;11.90;;;8.20;;
45863;SDS011;31579;52.354;16.974;2023-06-10T01:53:03;14.30;;;7.90;;
45863;SDS011;31579;52.354;16.974;2023-06-10T01:58:02;14.30;;;7.90;;
45863;SDS011;31579;52.354;16.974;2023-06-10T02:03:02;11.80;;;7.70;;
45863;SDS011;31579;52.354;16.974;2023-06-10T02:08:06;11.80;;;7.70;;
45863;SDS011;31579;52.354;16.974;2023-06-10T02:13:02;11.20;;;7.60;;
45863;SDS011;31579;52.354;16.974;2023-06-10T02:18:02;11.20;;;7.60;;
45863;SDS011;31579;52.354;16.974;2023-06-10T02:23:02;13.00;;;7.30;;
45863;SDS011;31579;52.354;16.974;2023-06-10T02:25:04;13.00;;;7.30;;
45863;SDS011;31579;52.354;16.974;2023-06-10T02:30:03;11.70;;;7.80;;
45863;SDS011;31579;52.354;16.974;2023-06-10T02:35:02;11.70;;;7.80;;
45863;SDS011;31579;52.354;16.974;2023-06-10T02:40:03;12.70;;;7.60;;
45863;SDS011;31579;52.354;16.974;2023-06-10T02:45:03;12.70;;;7.60;;
45863;SDS011;31579;52.354;16.974;2023-06-10T02:50:03;13.20;;;7.20;;
45863;SDS011;31579;52.354;16.974;2023-06-10T02:55:03;13.20;;;7.20;;
45863;SDS011;31579;52.354;16.974;2023-06-10T03:00:03;11.00;;;7.00;;
45863;SDS011;31579;52.354;16.974;2023-06-10T03:05:03;11.00;;;7.00;;
45863;SDS011;31579;52.354;16.974;2023-06-10T03:10:05;11.70;;;7.20;;
45863;SDS011;31579;52.354;16.974;2023-06-10T03:15:03;11.70;;;7.20;;
45863;SDS011;31579;52.354;16.974;2023-06-10T03:20:03;11.60;;;7.30;;
45863;SDS011;31579;52.354;16.974;2023-06-10T03:25:03;11.60;;;7.30;;
45863;SDS011;31579;52.354;16.974;2023-06-10T03:27:13;11.60;;;7.30;;
45863;SDS011;31579;52.354;16.974;2023-06-10T03:32:11;11.60;;;7.60;;
45863;SDS011;31579;52.354;16.974;2023-06-10T03:37:11;11.60;;;7.60;;
45863;SDS011;31579;52.354;16.974;2023-06-10T03:42:11;14.70;;;7.60;;
45863;SDS011;31579;52.354;16.974;2023-06-10T03:47:11;14.70;;;7.60;;
45863;SDS011;31579;52.354;16.974;2023-06-10T03:52:11;13.30;;;7.60;;
45863;SDS011;31579;52.354;16.974;2023-06-10T03:57:15;13.30;;;7.60;;
45863;SDS011;31579;52.354;16.974;2023-06-10T04:02:11;12.30;;;6.80;;
45863;SDS011;31579;52.354;16.974;2023-06-10T04:07:11;12.30;;;6.80;;
45863;SDS011;31579;52.354;16.974;2023-06-10T04:12:11;12.00;;;7.10;;
45863;SDS011;31579;52.354;16.974;2023-06-10T04:17:11;12.00;;;7.10;;
45863;SDS011;31579;52.354;16.974;2023-06-10T04:22:11;12.90;;;6.40;;
45863;SDS011;31579;52.354;16.974;2023-06-10T04:27:11;12.90;;;6.40;;
45863;SDS011;31579;52.354;16.974;2023-06-10T04:32:11;10.20;;;6.50;;
45863;SDS011;31579;52.354;16.974;2023-06-10T04:37:11;10.20;;;6.50;;
45863;SDS011;31579;52.354;16.974;2023-06-10T04:42:11;17.80;;;6.90;;
45863;SDS011;31579;52.354;16.974;2023-06-10T04:47:14;17.80;;;6.90;;
45863;SDS011;31579;52.354;16.974;2023-06-10T04:52:11;11.60;;;6.10;;
45863;SDS011;31579;52.354;16.974;2023-06-10T04:57:11;11.60;;;6.10;;
45863;SDS011;31579;52.354;16.974;2023-06-10T05:02:11;9.30;;;5.90;;
45863;SDS011;31579;52.354;16.974;2023-06-10T05:07:11;9.30;;;5.90;;
45863;SDS011;31579;52.354;16.974;2023-06-10T05:12:11;10.20;;;6.50;;
45863;SDS011;31579;52.354;16.974;2023-06-10T05:17:11;10.20;;;6.50;;
45863;SDS011;31579;52.354;16.974;2023-06-10T05:22:11;10.70;;;5.90;;
45863;SDS011;31579;52.354;16.974;2023-06-10T05:26:46;10.70;;;5.90;;
45863;SDS011;31579;52.354;16.974;2023-06-10T05:31:44;10.00;;;5.60;;
45863;SDS011;31579;52.354;16.974;2023-06-10T05:36:44;10.00;;;5.60;;
45863;SDS011;31579;52.354;16.974;2023-06-10T05:41:45;12.60;;;5.70;;
45863;SDS011;31579;52.354;16.974;2023-06-10T05:46:44;12.60;;;5.70;;
45863;SDS011;31579;52.354;16.974;2023-06-10T05:51:44;9.40;;;5.50;;
45863;SDS011;31579;52.354;16.974;2023-06-10T05:56:47;9.40;;;5.50;;
45863;SDS011;31579;52.354;16.974;2023-06-10T06:01:44;9.60;;;5.40;;
45863;SDS011;31579;52.354;16.974;2023-06-10T06:06:44;9.60;;;5.40;;
45863;SDS011;31579;52.354;16.974;2023-06-10T06:11:44;9.00;;;5.40;;
45863;SDS011;31579;52.354;16.974;2023-06-10T06:12:55;9.00;;;5.40;;
45863;SDS011;31579;52.354;16.974;2023-06-10T06:17:53;9.00;;;5.40;;
45863;SDS011;31579;52.354;16.974;2023-06-10T06:22:54;9.70;;;5.00;;
45863;SDS011;31579;52.354;16.974;2023-06-10T06:27:53;9.70;;;5.00;;
45863;SDS011;31579;52.354;16.974;2023-06-10T06:32:53;9.80;;;5.30;;
45863;SDS011;31579;52.354;16.974;2023-06-10T06:37:53;9.80;;;5.30;;
45863;SDS011;31579;52.354;16.974;2023-06-10T06:40:49;9.70;;;4.90;;
45863;SDS011;31579;52.354;16.974;2023-06-10T06:45:47;9.70;;;4.90;;
45863;SDS011;31579;52.354;16.974;2023-06-10T06:49:37;9.60;;;5.00;;
45863;SDS011;31579;52.354;16.974;2023-06-10T06:54:35;9.60;;;5.00;;
45863;SDS011;31579;52.354;16.974;2023-06-10T06:59:35;9.30;;;5.30;;
45863;SDS011;31579;52.354;16.974;2023-06-10T07:04:36;9.30;;;5.30;;
45863;SDS011;31579;52.354;16.974;2023-06-10T07:09:35;9.00;;;5.50;;
45863;SDS011;31579;52.354;16.974;2023-06-10T07:14:35;9.00;;;5.50;;
45863;SDS011;31579;52.354;16.974;2023-06-10T07:19:39;7.40;;;5.20;;
45863;SDS011;31579;52.354;16.974;2023-06-10T07:24:35;7.40;;;5.20;;
45863;SDS011;31579;52.354;16.974;2023-06-10T07:29:35;8.80;;;5.20;;
45863;SDS011;31579;52.354;16.974;2023-06-10T07:34:35;8.80;;;5.20;;
45863;SDS011;31579;52.354;16.974;2023-06-10T07:39:35;8.00;;;5.30;;
45863;SDS011;31579;52.354;16.974;2023-06-10T07:44:35;8.00;;;5.30;;
45863;SDS011;31579;52.354;16.974;2023-06-10T07:49:35;9.80;;;5.30;;
45863;SDS011;31579;52.354;16.974;2023-06-10T07:53:50;9.80;;;5.30;;
45863;SDS011;31579;52.354;16.974;2023-06-10T07:58:49;10.80;;;5.20;;
45863;SDS011;31579;52.354;16.974;2023-06-10T08:03:49;10.80;;;5.20;;
45863;SDS011;31579;52.354;16.974;2023-06-10T08:08:49;7.80;;;4.70;;
45863;SDS011;31579;52.354;16.974;2023-06-10T08:13:49;7.80;;;4.70;;
45863;SDS011;31579;52.354;16.974;2023-06-10T08:18:40;9.00;;;4.80;;
45863;SDS011;31579;52.354;16.974;2023-06-10T08:23:39;9.00;;;4.80;;
45863;SDS011;31579;52.354;16.974;2023-06-10T08:28:39;13.10;;;5.40;;
45863;SDS011;31579;52.354;16.974;2023-06-10T08:34:24;13.10;;;5.40;;
45863;SDS011;31579;52.354;16.974;2023-06-10T08:39:24;9.40;;;5.00;;
45863;SDS011;31579;52.354;16.974;2023-06-10T08:44:27;9.40;;;5.00;;
45863;SDS011;31579;52.354;16.974;2023-06-10T08:49:24;9.70;;;4.90;;
45863;SDS011;31579;52.354;16.974;2023-06-10T08:54:28;9.70;;;4.90;;
45863;SDS011;31579;52.354;16.974;2023-06-10T08:59:26;9.20;;;4.30;;
45863;SDS011;31579;52.354;16.974;2023-06-10T09:04:24;9.20;;;4.30;;
45863;SDS011;31579;52.354;16.974;2023-06-10T09:09:24;9.80;;;4.40;;
45863;SDS011;31579;52.354;16.974;2023-06-10T09:14:25;9.80;;;4.40;;
45863;SDS011;31579;52.354;16.974;2023-06-10T09:19:25;7.10;;;4.00;;
45863;SDS011;31579;52.354;16.974;2023-06-10T09:24:24;7.10;;;4.00;;
45863;SDS011;31579;52.354;16.974;2023-06-10T09:29:24;8.40;;;3.90;;
45863;SDS011;31579;52.354;16.974;2023-06-10T09:34:24;8.40;;;3.90;;
45863;SDS011;31579;52.354;16.974;2023-06-10T09:35:35;8.40;;;3.90;;
45863;SDS011;31579;52.354;16.974;2023-06-10T09:40:33;6.80;;;4.00;;
45863;SDS011;31579;52.354;16.974;2023-06-10T09:45:33;6.80;;;4.00;;
45863;SDS011;31579;52.354;16.974;2023-06-10T09:50:33;7.20;;;4.20;;
45863;SDS011;31579;52.354;16.974;2023-06-10T09:55:33;7.20;;;4.20;;
45863;SDS011;31579;52.354;16.974;2023-06-10T10:00:33;8.00;;;3.80;;
45863;SDS011;31579;52.354;16.974;2023-06-10T10:05:36;8.00;;;3.80;;
45863;SDS011;31579;52.354;16.974;2023-06-10T10:10:33;6.30;;;3.70;;
45863;SDS011;31579;52.354;16.974;2023-06-10T10:15:33;6.30;;;3.70;;
45863;SDS011;31579;52.354;16.974;2023-06-10T10:20:34;8.90;;;4.50;;
45863;SDS011;31579;52.354;16.974;2023-06-10T10:25:35;8.90;;;4.50;;
45863;SDS011;31579;52.354;16.974;2023-06-10T10:30:37;9.20;;;3.80;;
45863;SDS011;31579;52.354;16.974;2023-06-10T10:35:33;9.20;;;3.80;;
45863;SDS011;31579;52.354;16.974;2023-06-10T10:40:33;7.10;;;4.10;;
45863;SDS011;31579;52.354;16.974;2023-06-10T10:45:33;7.10;;;4.10;;
45863;SDS011;31579;52.354;16.974;2023-06-10T10:47:04;7.10;;;4.10;;
45863;SDS011;31579;52.354;16.974;2023-06-10T10:48:21;7.10;;;4.10;;
45863;SDS011;31579;52.354;16.974;2023-06-10T10:53:20;6.90;;;4.10;;
45863;SDS011;31579;52.354;16.974;2023-06-10T11:02:08;7.60;;;4.30;;
45863;SDS011;31579;52.354;16.974;2023-06-10T11:07:08;7.60;;;4.30;;
45863;SDS011;31579;52.354;16.974;2023-06-10T11:12:08;9.00;;;4.30;;
45863;SDS011;31579;52.354;16.974;2023-06-10T11:17:18;9.00;;;4.30;;
45863;SDS011;31579;52.354;16.974;2023-06-10T11:22:08;6.90;;;3.70;;
45863;SDS011;31579;52.354;16.974;2023-06-10T11:27:15;6.90;;;3.70;;
45863;SDS011;31579;52.354;16.974;2023-06-10T11:32:08;8.80;;;4.40;;
45863;SDS011;31579;52.354;16.974;2023-06-10T11:37:08;8.80;;;4.40;;
45863;SDS011;31579;52.354;16.974;2023-06-10T11:42:13;9.80;;;4.90;;
45863;SDS011;31579;52.354;16.974;2023-06-10T11:47:08;9.80;;;4.90;;
45863;SDS011;31579;52.354;16.974;2023-06-10T11:52:08;7.90;;;4.20;;
45863;SDS011;31579;52.354;16.974;2023-06-10T11:57:09;7.90;;;4.20;;
45863;SDS011;31579;52.354;16.974;2023-06-10T12:02:14;7.00;;;4.30;;
45863;SDS011;31579;52.354;16.974;2023-06-10T12:07:08;7.00;;;4.30;;
45863;SDS011;31579;52.354;16.974;2023-06-10T12:12:08;10.20;;;4.20;;
45863;SDS011;31579;52.354;16.974;2023-06-10T12:17:08;10.20;;;4.20;;
45863;SDS011;31579;52.354;16.974;2023-06-10T12:22:08;8.30;;;4.50;;
45863;SDS011;31579;52.354;16.974;2023-06-10T12:27:10;8.30;;;4.50;;
45863;SDS011;31579;52.354;16.974;2023-06-10T12:32:08;7.60;;;4.20;;
45863;SDS011;31579;52.354;16.974;2023-06-10T12:37:10;7.60;;;4.20;;
45863;SDS011;31579;52.354;16.974;2023-06-10T12:42:08;7.20;;;3.70;;
45863;SDS011;31579;52.354;16.974;2023-06-10T12:47:09;7.20;;;3.70;;
45863;SDS011;31579;52.354;16.974;2023-06-10T12:52:08;5.60;;;3.50;;
45863;SDS011;31579;52.354;16.974;2023-06-10T12:57:08;5.60;;;3.50;;
45863;SDS011;31579;52.354;16.974;2023-06-10T13:02:13;14.30;;;4.20;;
45863;SDS011;31579;52.354;16.974;2023-06-10T13:07:08;14.30;;;4.20;;
45863;SDS011;31579;52.354;16.974;2023-06-10T13:12:08;7.20;;;3.50;;
45863;SDS011;31579;52.354;16.974;2023-06-10T13:17:11;7.20;;;3.50;;
45863;SDS011;31579;52.354;16.974;2023-06-10T13:22:08;6.00;;;3.40;;
45863;SDS011;31579;52.354;16.974;2023-06-10T13:27:08;6.00;;;3.40;;
45863;SDS011;31579;52.354;16.974;2023-06-10T13:32:08;7.80;;;3.20;;
45863;SDS011;31579;52.354;16.974;2023-06-10T13:37:08;7.80;;;3.20;;
45863;SDS011;31579;52.354;16.974;2023-06-10T13:42:08;7.50;;;3.60;;
45863;SDS011;31579;52.354;16.974;2023-06-10T13:47:08;7.50;;;3.60;;
45863;SDS011;31579;52.354;16.974;2023-06-10T13:52:08;7.60;;;3.10;;
45863;SDS011;31579;52.354;16.974;2023-06-10T13:57:08;7.60;;;3.10;;
45863;SDS011;31579;52.354;16.974;2023-06-10T14:02:08;7.40;;;3.10;;
45863;SDS011;31579;52.354;16.974;2023-06-10T14:07:08;7.40;;;3.10;;
45863;SDS011;31579;52.354;16.974;2023-06-10T14:12:08;6.60;;;3.40;;
45863;SDS011;31579;52.354;16.974;2023-06-10T14:17:08;6.60;;;3.40;;
45863;SDS011;31579;52.354;16.974;2023-06-10T14:22:08;8.50;;;3.50;;
45863;SDS011;31579;52.354;16.974;2023-06-10T14:27:08;8.50;;;3.50;;
45863;SDS011;31579;52.354;16.974;2023-06-10T14:32:08;9.20;;;3.20;;
45863;SDS011;31579;52.354;16.974;2023-06-10T14:37:11;9.20;;;3.20;;
45863;SDS011;31579;52.354;16.974;2023-06-10T14:42:08;6.40;;;3.10;;
45863;SDS011;31579;52.354;16.974;2023-06-10T14:47:08;6.40;;;3.10;;
45863;SDS011;31579;52.354;16.974;2023-06-10T14:52:08;15.10;;;3.20;;
45863;SDS011;31579;52.354;16.974;2023-06-10T14:57:08;15.10;;;3.20;;
45863;SDS011;31579;52.354;16.974;2023-06-10T15:02:08;8.20;;;3.10;;
45863;SDS011;31579;52.354;16.974;2023-06-10T15:07:08;8.20;;;3.10;;
45863;SDS011;31579;52.354;16.974;2023-06-10T15:12:08;4.50;;;2.80;;
45863;SDS011;31579;52.354;16.974;2023-06-10T15:17:08;4.50;;;2.80;;
45863;SDS011;31579;52.354;16.974;2023-06-10T15:22:08;8.60;;;2.50;;
45863;SDS011;31579;52.354;16.974;2023-06-10T15:27:08;8.60;;;2.50;;
45863;SDS011;31579;52.354;16.974;2023-06-10T15:32:08;4.80;;;2.70;;
45863;SDS011;31579;52.354;16.974;2023-06-10T15:37:08;4.80;;;2.70;;
45863;SDS011;31579;52.354;16.974;2023-06-10T15:42:08;5.20;;;2.80;;
45863;SDS011;31579;52.354;16.974;2023-06-10T15:47:08;5.20;;;2.80;;
45863;SDS011;31579;52.354;16.974;2023-06-10T15:47:33;5.20;;;2.80;;
45863;SDS011;31579;52.354;16.974;2023-06-10T15:52:32;5.90;;;2.40;;
45863;SDS011;31579;52.354;16.974;2023-06-10T15:57:32;5.90;;;2.40;;
45863;SDS011;31579;52.354;16.974;2023-06-10T16:02:32;7.10;;;3.00;;
45863;SDS011;31579;52.354;16.974;2023-06-10T16:07:32;7.10;;;3.00;;
45863;SDS011;31579;52.354;16.974;2023-06-10T16:12:32;5.60;;;2.50;;
45863;SDS011;31579;52.354;16.974;2023-06-10T16:17:34;5.60;;;2.50;;
45863;SDS011;31579;52.354;16.974;2023-06-10T16:22:32;7.00;;;2.70;;
45863;SDS011;31579;52.354;16.974;2023-06-10T16:27:32;7.00;;;2.70;;
45863;SDS011;31579;52.354;16.974;2023-06-10T16:32:32;6.70;;;3.20;;
45863;SDS011;31579;52.354;16.974;2023-06-10T16:37:32;6.70;;;3.20;;
45863;SDS011;31579;52.354;16.974;2023-06-10T16:42:32;5.60;;;2.60;;
45863;SDS011;31579;52.354;16.974;2023-06-10T16:47:32;5.60;;;2.60;;
45863;SDS011;31579;52.354;16.974;2023-06-10T16:52:32;5.50;;;2.40;;
45863;SDS011;31579;52.354;16.974;2023-06-10T16:57:32;5.50;;;2.40;;
45863;SDS011;31579;52.354;16.974;2023-06-10T16:58:12;5.50;;;2.40;;
45863;SDS011;31579;52.354;16.974;2023-06-10T17:03:11;5.50;;;2.40;;
45863;SDS011;31579;52.354;16.974;2023-06-10T17:08:11;5.50;;;2.40;;
45863;SDS011;31579;52.354;16.974;2023-06-10T17:13:13;4.40;;;2.40;;
45863;SDS011;31579;52.354;16.974;2023-06-10T17:18:11;4.40;;;2.40;;
45863;SDS011;31579;52.354;16.974;2023-06-10T17:23:11;7.40;;;2.90;;
45863;SDS011;31579;52.354;16.974;2023-06-10T17:28:13;7.40;;;2.90;;
45863;SDS011;31579;52.354;16.974;2023-06-10T17:33:11;6.50;;;2.90;;
45863;SDS011;31579;52.354;16.974;2023-06-10T17:38:11;6.50;;;2.90;;
45863;SDS011;31579;52.354;16.974;2023-06-10T17:43:11;5.50;;;3.30;;
45863;SDS011;31579;52.354;16.974;2023-06-10T17:48:11;5.50;;;3.30;;
45863;SDS011;31579;52.354;16.974;2023-06-10T17:53:11;5.20;;;3.30;;
45863;SDS011;31579;52.354;16.974;2023-06-10T17:58:11;5.20;;;3.30;;
45863;SDS011;31579;52.354;16.974;2023-06-10T18:03:11;8.70;;;3.20;;
45863;SDS011;31579;52.354;16.974;2023-06-10T18:03:26;8.70;;;3.20;;
45863;SDS011;31579;52.354;16.974;2023-06-10T18:08:25;8.70;;;3.20;;
45863;SDS011;31579;52.354;16.974;2023-06-10T18:13:25;6.50;;;3.10;;
45863;SDS011;31579;52.354;16.974;2023-06-10T18:18:25;6.50;;;3.10;;
45863;SDS011;31579;52.354;16.974;2023-06-10T18:23:25;6.80;;;2.40;;
45863;SDS011;31579;52.354;16.974;2023-06-10T18:28:25;6.80;;;2.40;;
45863;SDS011;31579;52.354;16.974;2023-06-10T18:33:26;4.40;;;2.40;;
45863;SDS011;31579;52.354;16.974;2023-06-10T18:38:25;4.40;;;2.40;;
45863;SDS011;31579;52.354;16.974;2023-06-10T18:43:25;4.80;;;2.10;;
45863;SDS011;31579;52.354;16.974;2023-06-10T18:48:25;4.80;;;2.10;;
45863;SDS011;31579;52.354;16.974;2023-06-10T18:53:25;4.20;;;1.90;;
45863;SDS011;31579;52.354;16.974;2023-06-10T18:58:25;4.20;;;1.90;;
45863;SDS011;31579;52.354;16.974;2023-06-10T19:03:25;4.60;;;2.10;;
45863;SDS011;31579;52.354;16.974;2023-06-10T19:08:26;4.60;;;2.10;;
45863;SDS011;31579;52.354;16.974;2023-06-10T19:13:25;4.10;;;2.00;;
45863;SDS011;31579;52.354;16.974;2023-06-10T19:18:25;4.10;;;2.00;;
45863;SDS011;31579;52.354;16.974;2023-06-10T19:23:25;6.30;;;2.40;;
45863;SDS011;31579;52.354;16.974;2023-06-10T19:28:25;6.30;;;2.40;;
45863;SDS011;31579;52.354;16.974;2023-06-10T19:33:25;5.80;;;2.00;;
45863;SDS011;31579;52.354;16.974;2023-06-10T19:38:25;5.80;;;2.00;;
45863;SDS011;31579;52.354;16.974;2023-06-10T19:43:25;6.50;;;2.00;;
45863;SDS011;31579;52.354;16.974;2023-06-10T19:48:25;6.50;;;2.00;;
45863;SDS011;31579;52.354;16.974;2023-06-10T19:53:25;6.20;;;1.90;;
45863;SDS011;31579;52.354;16.974;2023-06-10T19:58:25;6.20;;;1.90;;
45863;SDS011;31579;52.354;16.974;2023-06-10T20:03:25;6.00;;;2.40;;
45863;SDS011;31579;52.354;16.974;2023-06-10T20:08:25;6.00;;;2.40;;
45863;SDS011;31579;52.354;16.974;2023-06-10T20:13:25;4.40;;;2.00;;
45863;SDS011;31579;52.354;16.974;2023-06-10T20:18:25;4.40;;;2.00;;
45863;SDS011;31579;52.354;16.974;2023-06-10T20:23:25;6.40;;;2.10;;
45863;SDS011;31579;52.354;16.974;2023-06-10T20:28:26;6.40;;;2.10;;
45863;SDS011;31579;52.354;16.974;2023-06-10T20:33:25;6.90;;;1.90;;
45863;SDS011;31579;52.354;16.974;2023-06-10T20:38:25;6.90;;;1.90;;
45863;SDS011;31579;52.354;16.974;2023-06-10T20:43:25;6.60;;;2.00;;
45863;SDS011;31579;52.354;16.974;2023-06-10T20:48:25;6.60;;;2.00;;
45863;SDS011;31579;52.354;16.974;2023-06-10T20:53:25;4.40;;;2.20;;
45863;SDS011;31579;52.354;16.974;2023-06-10T20:58:25;4.40;;;2.20;;
45863;SDS011;31579;52.354;16.974;2023-06-10T21:03:25;5.40;;;1.90;;
45863;SDS011;31579;52.354;16.974;2023-06-10T21:08:25;5.40;;;1.90;;
45863;SDS011;31579;52.354;16.974;2023-06-10T21:13:25;3.80;;;1.90;;
45863;SDS011;31579;52.354;16.974;2023-06-10T21:18:25;3.80;;;1.90;;
45863;SDS011;31579;52.354;16.974;2023-06-10T21:23:25;3.80;;;1.80;;
45863;SDS011;31579;52.354;16.974;2023-06-10T21:28:25;3.80;;;1.80;;
45863;SDS011;31579;52.354;16.974;2023-06-10T21:33:25;7.30;;;1.60;;
45863;SDS011;31579;52.354;16.974;2023-06-10T21:38:25;7.30;;;1.60;;
45863;SDS011;31579;52.354;16.974;2023-06-10T21:43:25;6.80;;;2.20;;
45863;SDS011;31579;52.354;16.974;2023-06-10T21:48:25;6.80;;;2.20;;
45863;SDS011;31579;52.354;16.974;2023-06-10T21:53:25;6.50;;;1.80;;
45863;SDS011;31579;52.354;16.974;2023-06-10T21:58:25;6.50;;;1.80;;
45863;SDS011;31579;52.354;16.974;2023-06-10T22:03:25;4.80;;;1.70;;
45863;SDS011;31579;52.354;16.974;2023-06-10T22:08:28;4.80;;;1.70;;
45863;SDS011;31579;52.354;16.974;2023-06-10T22:13:25;4.60;;;2.10;;
45863;SDS011;31579;52.354;16.974;2023-06-10T22:18:25;4.60;;;2.10;;
45863;SDS011;31579;52.354;16.974;2023-06-10T22:23:26;6.00;;;2.00;;
45863;SDS011;31579;52.354;16.974;2023-06-10T22:28:25;6.00;;;2.00;;
45863;SDS011;31579;52.354;16.974;2023-06-10T22:33:25;5.40;;;2.00;;
45863;SDS011;31579;52.354;16.974;2023-06-10T22:34:07;5.40;;;2.00;;
45863;SDS011;31579;52.354;16.974;2023-06-10T22:39:05;3.80;;;1.50;;
45863;SDS011;31579;52.354;16.974;2023-06-10T22:44:05;3.80;;;1.50;;
45863;SDS011;31579;52.354;16.974;2023-06-10T22:49:05;4.80;;;1.90;;
45863;SDS011;31579;52.354;16.974;2023-06-10T22:54:05;4.80;;;1.90;;
45863;SDS011;31579;52.354;16.974;2023-06-10T22:59:05;4.10;;;1.80;;
45863;SDS011;31579;52.354;16.974;2023-06-10T23:04:05;4.10;;;1.80;;
45863;SDS011;31579;52.354;16.974;2023-06-10T23:09:05;4.70;;;1.80;;
45863;SDS011;31579;52.354;16.974;2023-06-10T23:14:05;4.70;;;1.80;;
45863;SDS011;31579;52.354;16.974;2023-06-10T23:19:05;5.30;;;1.60;;
45863;SDS011;31579;52.354;16.974;2023-06-10T23:24:05;5.30;;;1.60;;
45863;SDS011;31579;52.354;16.974;2023-06-10T23:29:05;5.80;;;1.90;;
45863;SDS011;31579;52.354;16.974;2023-06-10T23:34:05;5.80;;;1.90;;
45863;SDS011;31579;52.354;16.974;2023-06-10T23:37:11;5.80;;;1.90;;
45863;SDS011;31579;52.354;16.974;2023-06-10T23:42:09;5.30;;;2.00;;
45863;SDS011;31579;52.354;16.974;2023-06-10T23:47:09;5.30;;;2.00;;
45863;SDS011;31579;52.354;16.974;2023-06-10T23:52:09;5.10;;;2.00;;
45863;SDS011;31579;52.354;16.974;2023-06-10T23:57:09;5.10;;;2.00;;
